Time;durP1;ratioP1;P1;durP2;ratioP2;P2;SDS_P1;SDS_P2;PMS_P1;PMS_P2;Temp;Humidity;BMP_temperature;BMP_pressure;BME280_temperature;BME280_humidity;BME280_pressure;Samples;Min_cycle;Max_cycle;Signal;HPM_P1;HPM_P2
2021/11/03 00:01:30;;;;;;;701.70;463.10;;;;;;;;;;5093325;28;20043;-72
2021/11/03 00:03:56;;;;;;;688.03;430.83;;;;;;;;;;5093037;28;20107;-71
2021/11/03 00:06:23;;;;;;;658.30;409.53;;;;;;;;;;5091660;28;20393;-71
2021/11/03 00:08:50;;;;;;;665.07;437.90;;;;;;;;;;5093396;28;20024;-71
2021/11/03 00:11:17;;;;;;;666.07;446.27;;;;;;;;;;5092839;28;20452;-72
2021/11/03 00:13:44;;;;;;;661.97;417.80;;;;;;;;;;5093082;28;20051;-71
2021/11/03 00:16:10;;;;;;;661.73;416.63;;;;;;;;;;5093535;28;20379;-71
2021/11/03 00:18:36;;;;;;;635.17;399.90;;;;;;;;;;5092879;28;20069;-72
2021/11/03 00:21:03;;;;;;;644.00;416.60;;;;;;;;;;5093190;28;20024;-71
2021/11/03 00:23:29;;;;;;;637.73;389.03;;;;;;;;;;5092731;28;20436;-71
2021/11/03 00:25:55;;;;;;;636.20;406.03;;;;;;;;;;5093261;28;20107;-71
2021/11/03 00:28:22;;;;;;;633.23;408.50;;;;;;;;;;5093118;28;20052;-71
2021/11/03 00:30:50;;;;;;;572.90;350.17;;;;;;;;;;5092525;28;20025;-71
2021/11/03 00:33:16;;;;;;;598.83;388.33;;;;;;;;;;5093094;28;20025;-71
2021/11/03 00:35:42;;;;;;;628.13;400.27;;;;;;;;;;5093538;28;20375;-70
2021/11/03 00:38:09;;;;;;;645.73;401.70;;;;;;;;;;5092731;28;20028;-71
2021/11/03 00:40:35;;;;;;;638.90;393.13;;;;;;;;;;5092993;28;20024;-71
2021/11/03 00:43:02;;;;;;;858.47;473.45;;;;;;;;;;5093011;28;20380;-71
2021/11/03 00:45:28;;;;;;;923.70;472.38;;;;;;;;;;5092793;28;20032;-72
2021/11/03 00:47:54;;;;;;;947.67;461.05;;;;;;;;;;5092927;28;20396;-71
2021/11/03 00:50:21;;;;;;;922.88;492.02;;;;;;;;;;5092800;28;20146;-71
2021/11/03 00:52:47;;;;;;;905.30;487.92;;;;;;;;;;5094356;28;20510;-71
2021/11/03 00:55:14;;;;;;;954.58;462.67;;;;;;;;;;5096688;28;20380;-71
2021/11/03 00:57:40;;;;;;;942.75;468.67;;;;;;;;;;5097160;28;20103;-71
2021/11/03 01:00:07;;;;;;;956.15;468.55;;;;;;;;;;5096184;28;20035;-70
2021/11/03 01:02:33;;;;;;;941.55;458.35;;;;;;;;;;5096530;28;20065;-71
2021/11/03 01:04:59;;;;;;;950.75;467.85;;;;;;;;;;5096443;28;20047;-70
2021/11/03 01:07:26;;;;;;;943.42;474.55;;;;;;;;;;5096278;28;20128;-71
2021/11/03 01:09:52;;;;;;;970.63;474.85;;;;;;;;;;5096448;28;20063;-71
2021/11/03 01:12:18;;;;;;;974.72;482.27;;;;;;;;;;5096355;28;20483;-71
2021/11/03 01:14:45;;;;;;;977.97;475.25;;;;;;;;;;5096046;28;20020;-71
2021/11/03 01:17:11;;;;;;;970.80;490.85;;;;;;;;;;5096301;28;20024;-71
2021/11/03 01:19:37;;;;;;;974.33;481.35;;;;;;;;;;5096300;28;20107;-71
2021/11/03 01:22:04;;;;;;;935.75;499.85;;;;;;;;;;5096015;28;20036;-72
2021/11/03 01:24:30;;;;;;;951.80;487.40;;;;;;;;;;5096047;28;20472;-71
2021/11/03 01:26:56;;;;;;;967.35;494.52;;;;;;;;;;5095712;28;20456;-71
2021/11/03 01:29:22;;;;;;;943.80;497.65;;;;;;;;;;5096021;28;20095;-71
2021/11/03 01:31:49;;;;;;;942.60;494.05;;;;;;;;;;5095968;28;20028;-70
2021/11/03 01:34:15;;;;;;;945.45;505.42;;;;;;;;;;5094348;28;20107;-71
2021/11/03 01:36:41;;;;;;;756.90;697.28;;;;;;;;;;5095853;28;20500;-71
2021/11/03 01:39:08;;;;;;;621.03;552.30;;;;;;;;;;5095805;28;20020;-71
2021/11/03 01:41:34;;;;;;;660.60;600.47;;;;;;;;;;5095516;28;20121;-71
2021/11/03 01:44:06;;;;;;;709.13;653.60;;;;;;;;;;5095690;28;20526;-71
2021/11/03 01:46:39;;;;;;;509.23;454.80;;;;;;;;;;5095951;28;20119;-71
2021/11/03 01:49:17;;;;;;;247.63;232.43;;;;;;;;;;5095594;28;20050;-71
2021/11/03 01:51:46;;;;;;;639.92;569.47;;;;;;;;;;5095692;28;20388;-69
2021/11/03 01:54:16;;;;;;;315.40;293.08;;;;;;;;;;5095645;28;20101;-71
2021/11/03 01:56:42;;;;;;;153.00;142.45;;;;;;;;;;5095205;28;20024;-70
2021/11/03 01:59:25;;;;;;;378.67;342.95;;;;;;;;;;5095630;28;20476;-71
2021/11/03 02:01:51;;;;;;;333.63;307.27;;;;;;;;;;5095139;28;20024;-71
2021/11/03 02:04:18;;;;;;;415.90;356.90;;;;;;;;;;5093951;28;20487;-71
2021/11/03 02:06:45;;;;;;;630.33;443.65;;;;;;;;;;5095087;28;20500;-71
2021/11/03 02:09:11;;;;;;;781.38;515.10;;;;;;;;;;5094910;28;20038;-71
2021/11/03 02:11:37;;;;;;;772.38;518.30;;;;;;;;;;5095341;28;20050;-71
2021/11/03 02:14:05;;;;;;;801.20;525.05;;;;;;;;;;5095209;28;20059;-72
2021/11/03 02:16:33;;;;;;;798.08;505.40;;;;;;;;;;5094715;28;20040;-73
2021/11/03 02:18:59;;;;;;;890.92;481.35;;;;;;;;;;5095193;28;20024;-71
2021/11/03 02:21:32;;;;;;;899.22;490.38;;;;;;;;;;5095092;28;20369;-71
2021/11/03 02:23:58;;;;;;;;;;;;;;;;;;5093859;28;20034;-71
2021/11/03 02:26:26;;;;;;;901.42;503.25;;;;;;;;;;5094917;28;20010;-71
2021/11/03 02:28:53;;;;;;;925.22;487.23;;;;;;;;;;5094886;28;20076;-70
2021/11/03 02:31:28;;;;;;;935.53;479.85;;;;;;;;;;5094482;28;20035;-70
2021/11/03 02:33:54;;;;;;;942.08;484.25;;;;;;;;;;5094809;28;20142;-70
2021/11/03 02:36:21;;;;;;;924.30;490.73;;;;;;;;;;5094750;28;20384;-71
2021/11/03 02:38:47;;;;;;;930.83;482.65;;;;;;;;;;5093029;28;20099;-70
2021/11/03 02:41:13;;;;;;;947.95;494.10;;;;;;;;;;5094748;28;20024;-71
2021/11/03 02:43:41;;;;;;;949.75;494.42;;;;;;;;;;5094640;28;20031;-71
2021/11/03 02:46:08;;;;;;;936.72;466.05;;;;;;;;;;5094147;28;20024;-71
2021/11/03 02:48:36;;;;;;;915.05;495.83;;;;;;;;;;5094457;28;20109;-72
2021/11/03 02:51:05;;;;;;;941.17;477.77;;;;;;;;;;5094398;28;20016;-71
2021/11/03 02:53:32;;;;;;;938.45;452.13;;;;;;;;;;5094381;28;20065;-71
2021/11/03 02:55:58;;;;;;;945.17;492.58;;;;;;;;;;5094258;28;20016;-71
2021/11/03 02:58:25;;;;;;;953.35;463.77;;;;;;;;;;5094374;28;20028;-71
2021/11/03 03:00:52;;;;;;;954.65;469.77;;;;;;;;;;5094157;28;20028;-70
2021/11/03 03:03:18;;;;;;;942.85;449.98;;;;;;;;;;5094265;28;20035;-71
2021/11/03 03:05:48;;;;;;;959.47;470.17;;;;;;;;;;5093468;28;20052;-71
2021/11/03 03:08:14;;;;;;;961.20;448.98;;;;;;;;;;5094077;28;20063;-71
2021/11/03 03:10:40;;;;;;;957.92;459.30;;;;;;;;;;5094003;28;20115;-70
2021/11/03 03:13:06;;;;;;;951.97;454.30;;;;;;;;;;5092446;28;20404;-71
2021/11/03 03:15:32;;;;;;;944.38;443.98;;;;;;;;;;5093579;28;20055;-71
2021/11/03 03:17:58;;;;;;;952.72;450.40;;;;;;;;;;5093970;28;20038;-71
2021/11/03 03:20:25;;;;;;;968.00;456.85;;;;;;;;;;5093531;28;20460;-71
2021/11/03 03:22:51;;;;;;;954.25;442.92;;;;;;;;;;5094166;28;20032;-70
2021/11/03 03:25:17;;;;;;;955.42;438.40;;;;;;;;;;5093726;28;20024;-70
2021/11/03 03:27:43;;;;;;;965.42;467.50;;;;;;;;;;5093389;28;20076;-70
2021/11/03 03:30:10;;;;;;;958.42;442.15;;;;;;;;;;5093887;28;20027;-71
2021/11/03 03:32:36;;;;;;;959.13;439.15;;;;;;;;;;5093803;28;20468;-71
2021/11/03 03:35:02;;;;;;;946.03;439.67;;;;;;;;;;5093243;28;20077;-71
2021/11/03 03:37:29;;;;;;;952.22;460.95;;;;;;;;;;5093911;28;20031;-70
2021/11/03 03:39:55;;;;;;;936.53;440.95;;;;;;;;;;5093579;28;20388;-70
2021/11/03 03:42:22;;;;;;;934.75;434.38;;;;;;;;;;5093093;28;20013;-71
2021/11/03 03:44:48;;;;;;;932.13;446.55;;;;;;;;;;5093755;28;20024;-70
2021/11/03 03:47:15;;;;;;;939.90;447.73;;;;;;;;;;5093423;28;20040;-71
2021/11/03 03:49:41;;;;;;;942.72;445.95;;;;;;;;;;5093123;28;20016;-71
2021/11/03 03:52:08;;;;;;;946.03;462.92;;;;;;;;;;5093705;28;20430;-71
2021/11/03 03:54:34;;;;;;;949.30;450.63;;;;;;;;;;5093070;28;20024;-71
2021/11/03 03:57:00;;;;;;;937.97;437.60;;;;;;;;;;5093390;28;20020;-71
2021/11/03 03:59:27;;;;;;;941.88;462.45;;;;;;;;;;5093327;28;20020;-70
2021/11/03 04:01:53;;;;;;;925.53;440.63;;;;;;;;;;5092895;28;20465;-70
2021/11/03 04:04:19;;;;;;;930.55;463.85;;;;;;;;;;5093335;28;20031;-70
2021/11/03 04:06:45;;;;;;;934.22;470.90;;;;;;;;;;5092994;28;20048;-70
2021/11/03 04:09:12;;;;;;;913.08;457.92;;;;;;;;;;5092926;28;20376;-70
2021/11/03 04:11:38;;;;;;;918.10;449.00;;;;;;;;;;5093223;28;20502;-70
2021/11/03 04:14:05;;;;;;;918.28;459.88;;;;;;;;;;5093179;28;20024;-70
2021/11/03 04:16:31;;;;;;;916.30;466.92;;;;;;;;;;5092988;28;20020;-70
2021/11/03 04:18:58;;;;;;;905.35;451.20;;;;;;;;;;5093150;28;20095;-70
2021/11/03 04:21:24;;;;;;;888.80;444.13;;;;;;;;;;5093061;28;20480;-72
2021/11/03 04:23:52;;;;;;;869.75;452.23;;;;;;;;;;5092702;28;20488;-71
2021/11/03 04:26:22;;;;;;;851.10;427.63;;;;;;;;;;5093021;28;20487;-71
2021/11/03 04:28:48;;;;;;;871.67;455.23;;;;;;;;;;5096889;28;20024;-71
2021/11/03 04:31:15;;;;;;;858.47;454.30;;;;;;;;;;5096839;28;20101;-71
2021/11/03 04:33:41;;;;;;;872.92;440.55;;;;;;;;;;5095858;28;20016;-70
2021/11/03 04:36:07;;;;;;;903.92;450.40;;;;;;;;;;5097038;28;20024;-70
2021/11/03 04:38:33;;;;;;;893.97;462.75;;;;;;;;;;5096672;28;20058;-70
2021/11/03 04:40:59;;;;;;;906.55;478.92;;;;;;;;;;5095698;28;20476;-70
2021/11/03 04:43:26;;;;;;;893.90;479.80;;;;;;;;;;5097054;28;20024;-70
2021/11/03 04:45:52;;;;;;;875.13;458.88;;;;;;;;;;5096431;28;20107;-70
2021/11/03 04:48:18;;;;;;;867.72;477.50;;;;;;;;;;5096873;28;20020;-70
2021/11/03 04:50:44;;;;;;;856.63;458.80;;;;;;;;;;5096468;28;20031;-71
2021/11/03 04:53:10;;;;;;;850.08;476.33;;;;;;;;;;5096733;28;20087;-70
2021/11/03 04:55:37;;;;;;;820.10;460.23;;;;;;;;;;5096736;28;20095;-70
2021/11/03 04:58:03;;;;;;;833.27;459.97;;;;;;;;;;5094968;28;20434;-70
2021/11/03 05:00:30;;;;;;;839.08;481.42;;;;;;;;;;5095346;28;20443;-69
2021/11/03 05:02:57;;;;;;;800.00;481.47;;;;;;;;;;5096597;28;20093;-70
2021/11/03 05:05:23;;;;;;;823.78;461.52;;;;;;;;;;5095922;28;20032;-69
2021/11/03 05:07:50;;;;;;;812.70;460.67;;;;;;;;;;5095286;28;20035;-68
2021/11/03 05:10:17;;;;;;;810.30;473.77;;;;;;;;;;5096337;28;20020;-70
2021/11/03 05:12:43;;;;;;;799.70;464.20;;;;;;;;;;5095800;28;20035;-70
2021/11/03 05:15:10;;;;;;;800.33;457.27;;;;;;;;;;5096324;28;20096;-70
2021/11/03 05:17:36;;;;;;;804.17;486.47;;;;;;;;;;5096283;28;20127;-70
2021/11/03 05:20:03;;;;;;;796.17;472.53;;;;;;;;;;5095767;28;20043;-70
2021/11/03 05:22:30;;;;;;;813.90;489.97;;;;;;;;;;5096146;28;20020;-70
2021/11/03 05:24:56;;;;;;;801.57;457.97;;;;;;;;;;5096417;28;20020;-72
2021/11/03 05:27:23;;;;;;;799.87;481.07;;;;;;;;;;5094394;28;20115;-71
2021/11/03 05:29:49;;;;;;;813.93;479.70;;;;;;;;;;5096158;28;20022;-71
2021/11/03 05:32:15;;;;;;;804.97;482.73;;;;;;;;;;5096031;28;20480;-71
2021/11/03 05:34:42;;;;;;;568.90;364.97;;;;;;;;;;5095582;28;20099;-69
2021/11/03 05:37:08;;;;;;;559.95;359.90;;;;;;;;;;5095773;28;20103;-71
2021/11/03 05:39:34;;;;;;;521.43;338.53;;;;;;;;;;5095387;28;20099;-70
2021/11/03 05:42:00;;;;;;;513.40;333.42;;;;;;;;;;5095345;28;20017;-71
2021/11/03 05:44:27;;;;;;;496.15;308.90;;;;;;;;;;5095614;28;20020;-71
2021/11/03 05:46:55;;;;;;;485.17;304.92;;;;;;;;;;5095029;28;20039;-70
2021/11/03 05:49:23;;;;;;;742.03;298.37;;;;;;;;;;5095596;28;20472;-72
2021/11/03 05:51:50;;;;;;;730.90;303.00;;;;;;;;;;5095711;28;20046;-73
2021/11/03 05:54:18;;;;;;;746.60;309.10;;;;;;;;;;5095563;28;20027;-72
2021/11/03 05:56:45;;;;;;;749.73;309.10;;;;;;;;;;5095838;28;20027;-72
2021/11/03 05:59:12;;;;;;;756.00;305.47;;;;;;;;;;5095590;28;20084;-71
2021/11/03 06:01:39;;;;;;;757.13;314.30;;;;;;;;;;5095168;28;20028;-71
2021/11/03 06:04:05;;;;;;;738.30;305.30;;;;;;;;;;5095339;28;20129;-71
2021/11/03 06:06:32;;;;;;;757.97;317.77;;;;;;;;;;5094602;28;20044;-71
2021/11/03 06:08:58;;;;;;;746.93;311.20;;;;;;;;;;5091187;28;20023;-71
2021/11/03 06:11:25;;;;;;;747.77;328.20;;;;;;;;;;5091779;28;20013;-72
2021/11/03 06:13:52;;;;;;;734.57;316.77;;;;;;;;;;5094255;28;20024;-71
2021/11/03 06:16:18;;;;;;;723.87;310.10;;;;;;;;;;5093823;28;20020;-72
2021/11/03 06:18:44;;;;;;;732.93;319.67;;;;;;;;;;5094615;28;20024;-69
2021/11/03 06:21:11;;;;;;;727.25;319.48;;;;;;;;;;5092567;28;20032;-69
2021/11/03 06:23:38;;;;;;;729.97;319.27;;;;;;;;;;5093366;28;20048;-69
2021/11/03 06:26:04;;;;;;;718.80;314.33;;;;;;;;;;5094225;28;20392;-69
2021/11/03 06:28:31;;;;;;;721.45;308.92;;;;;;;;;;5093927;28;20043;-69
2021/11/03 06:30:57;;;;;;;720.78;324.85;;;;;;;;;;5090364;28;20070;-69
2021/11/03 06:33:24;;;;;;;704.22;308.83;;;;;;;;;;5093657;28;20031;-69
2021/11/03 06:35:50;;;;;;;724.85;325.15;;;;;;;;;;5092532;28;20023;-69
2021/11/03 06:38:17;;;;;;;712.65;317.95;;;;;;;;;;5091098;28;20024;-71
2021/11/03 06:40:44;;;;;;;724.38;330.00;;;;;;;;;;5093240;28;20020;-71
2021/11/03 06:43:10;;;;;;;706.80;318.80;;;;;;;;;;5093361;28;20039;-71
2021/11/03 06:45:37;;;;;;;715.17;328.73;;;;;;;;;;5089713;28;20036;-71
2021/11/03 06:48:04;;;;;;;703.22;326.40;;;;;;;;;;5101945;28;20043;-70
2021/11/03 06:50:32;;;;;;;690.35;318.40;;;;;;;;;;5103308;28;20019;-69
2021/11/03 06:53:00;;;;;;;691.50;319.40;;;;;;;;;;5091336;28;20032;-69
2021/11/03 06:55:27;;;;;;;694.15;325.13;;;;;;;;;;5092063;28;20067;-71
2021/11/03 06:57:56;;;;;;;701.83;321.35;;;;;;;;;;5085927;28;20024;-71
2021/11/03 07:00:26;;;;;;;698.47;320.38;;;;;;;;;;5091618;28;20020;-70
2021/11/03 07:02:53;;;;;;;708.03;325.58;;;;;;;;;;5090352;28;20099;-71
2021/11/03 07:05:23;;;;;;;708.13;329.25;;;;;;;;;;5091158;28;20048;-71
2021/11/03 07:07:50;;;;;;;695.05;318.30;;;;;;;;;;5091679;28;20020;-71
2021/11/03 07:10:21;;;;;;;695.35;326.02;;;;;;;;;;5091122;28;20024;-71
2021/11/03 07:12:47;;;;;;;690.90;323.77;;;;;;;;;;5092035;28;20024;-69
2021/11/03 07:15:14;;;;;;;675.15;308.80;;;;;;;;;;5092829;28;20380;-73
2021/11/03 07:17:40;;;;;;;675.53;307.83;;;;;;;;;;5093243;28;20046;-74
2021/11/03 07:20:06;;;;;;;723.28;329.55;;;;;;;;;;5093416;28;20027;-74
2021/11/03 07:22:32;;;;;;;725.15;319.42;;;;;;;;;;5092611;28;20048;-74
2021/11/03 07:24:59;;;;;;;638.42;366.67;;;;;;;;;;5097453;28;20102;-73
2021/11/03 07:27:25;;;;;;;642.92;451.95;;;;;;;;;;5092083;28;20054;-72
2021/11/03 07:29:51;;;;;;;745.17;444.50;;;;;;;;;;5092764;28;20456;-73
2021/11/03 07:32:18;;;;;;;843.47;504.25;;;;;;;;;;5092926;28;20062;-73
2021/11/03 07:34:44;;;;;;;829.92;505.77;;;;;;;;;;5092468;28;20114;-72
2021/11/03 07:37:10;;;;;;;729.00;521.97;;;;;;;;;;5092819;28;20663;-75
2021/11/03 07:39:37;;;;;;;681.83;515.13;;;;;;;;;;5092520;28;20527;-74
2021/11/03 07:42:03;;;;;;;669.55;507.75;;;;;;;;;;5092564;28;20031;-74
2021/11/03 07:44:29;;;;;;;679.72;481.77;;;;;;;;;;5092859;28;20028;-74
2021/11/03 07:46:55;;;;;;;707.10;476.92;;;;;;;;;;5092201;28;20036;-74
2021/11/03 07:49:21;;;;;;;699.50;487.05;;;;;;;;;;5092635;28;20030;-74
2021/11/03 07:51:48;;;;;;;674.35;477.42;;;;;;;;;;5092558;28;20494;-74
2021/11/03 07:54:14;;;;;;;685.78;493.05;;;;;;;;;;5092617;28;20044;-73
2021/11/03 07:56:42;;;;;;;720.63;478.65;;;;;;;;;;5092467;28;20028;-74
2021/11/03 07:59:08;;;;;;;954.13;518.15;;;;;;;;;;5090804;28;20034;-74
2021/11/03 08:01:35;;;;;;;945.03;500.55;;;;;;;;;;5091268;28;20543;-73
2021/11/03 08:04:01;;;;;;;933.28;499.52;;;;;;;;;;5091539;28;20034;-74
2021/11/03 08:06:28;;;;;;;909.88;495.67;;;;;;;;;;5092070;28;20048;-75
2021/11/03 08:09:03;;;;;;;951.25;523.83;;;;;;;;;;5090447;28;20051;-74
2021/11/03 08:11:34;;;;;;;970.25;511.02;;;;;;;;;;5092364;28;20329;-73
2021/11/03 08:15:32;;;;;;;940.50;497.33;;;;;;;;;;5172438;27;20307;-74
2021/11/03 08:18:00;;;;;;;919.90;516.20;;;;;;;;;;5132190;27;20031;-72
2021/11/03 08:20:27;;;;;;;926.47;509.23;;;;;;;;;;5131124;27;20155;-73
2021/11/03 08:22:54;;;;;;;874.05;496.05;;;;;;;;;;5129012;27;20117;-72
2021/11/03 08:26:59;;;;;;;642.33;380.38;;;;;;;;;;5127292;27;20395;-70
2021/11/03 08:29:26;;;;;;;827.50;512.47;;;;;;;;;;5126815;28;20038;-72
2021/11/03 08:31:55;;;;;;;759.53;499.65;;;;;;;;;;5126585;28;20042;-71
2021/11/03 08:34:23;;;;;;;843.70;514.15;;;;;;;;;;5116922;28;20016;-71
2021/11/03 08:36:50;;;;;;;775.47;488.25;;;;;;;;;;5126231;27;20030;-71
2021/11/03 08:39:16;;;;;;;606.10;366.90;;;;;;;;;;5126218;27;20047;-72
2021/11/03 08:41:43;;;;;;;456.35;246.65;;;;;;;;;;5128428;27;20023;-72
2021/11/03 08:44:10;;;;;;;435.02;237.18;;;;;;;;;;5129211;27;20019;-72
2021/11/03 08:46:36;;;;;;;405.83;229.27;;;;;;;;;;5129463;27;20110;-71
2021/11/03 08:49:03;;;;;;;380.05;221.10;;;;;;;;;;5128925;27;20019;-71
2021/11/03 08:52:29;;;;;;;736.50;558.42;;;;;;;;;;5066741;28;20419;-72
2021/11/03 08:57:00;;;;;;;803.50;577.40;;;;;;;;;;5112772;27;21833;-71
2021/11/03 08:59:27;;;;;;;805.20;561.60;;;;;;;;;;5108251;28;20103;-71
2021/11/03 09:01:54;;;;;;;807.65;571.28;;;;;;;;;;5110653;28;20028;-70
2021/11/03 09:07:39;;;;;;;793.45;559.17;;;;;;;;;;5173577;27;20401;-72
2021/11/03 09:10:08;;;;;;;720.00;580.47;;;;;;;;;;5151404;27;20019;-71
2021/11/03 09:12:34;;;;;;;647.20;577.05;;;;;;;;;;5150945;27;20034;-72
2021/11/03 09:15:01;;;;;;;649.58;499.30;;;;;;;;;;5149045;27;20030;-71
2021/11/03 09:19:21;;;;;;;654.17;521.20;;;;;;;;;;5065403;28;20393;-70
2021/11/03 09:21:47;;;;;;;634.22;525.42;;;;;;;;;;5049703;28;20037;-70
2021/11/03 09:24:13;;;;;;;584.17;423.92;;;;;;;;;;5049704;28;20033;-70
2021/11/03 09:26:40;;;;;;;959.40;521.33;;;;;;;;;;5049182;28;20044;-71
2021/11/03 09:29:07;;;;;;;1033.32;511.10;;;;;;;;;;5068702;28;20033;-71
2021/11/03 09:32:28;;;;;;;879.72;528.38;;;;;;;;;;5108047;27;20408;-72
2021/11/03 09:34:54;;;;;;;738.42;502.02;;;;;;;;;;5109162;28;20024;-69
2021/11/03 09:38:40;;;;;;;727.53;534.75;;;;;;;;;;5108804;27;20449;-72
2021/11/03 09:42:42;;;;;;;773.03;482.60;;;;;;;;;;5090694;27;20832;-71
2021/11/03 09:47:55;;;;;;;656.45;587.58;;;;;;;;;;5110139;27;20454;-72
2021/11/03 09:50:24;;;;;;;628.67;550.25;;;;;;;;;;5102092;28;20059;-72
2021/11/03 10:00:26;;;;;;;17.92;7.93;;;;;;;;;;5082049;27;20487;-71
2021/11/03 10:02:55;;;;;;;12.18;7.03;;;;;;;;;;5086898;28;20120;-71
2021/11/03 10:05:28;;;;;;;12.38;6.63;;;;;;;;;;5088237;28;20111;-71
2021/11/03 10:08:02;;;;;;;13.10;7.55;;;;;;;;;;5088401;28;20024;-70
2021/11/03 10:14:11;;;;;;;13.23;8.18;;;;;;;;;;5102825;27;20456;-71
2021/11/03 10:16:42;;;;;;;18.77;8.82;;;;;;;;;;5109544;28;20028;-70
2021/11/03 10:21:22;;;;;;;14.13;8.57;;;;;;;;;;5110376;27;20397;-70
2021/11/03 10:24:20;;;;;;;14.02;8.23;;;;;;;;;;5108705;28;20031;-70
2021/11/03 10:27:53;;;;;;;11.07;6.57;;;;;;;;;;5087038;27;20381;-69
2021/11/03 10:32:07;;;;;;;13.70;7.60;;;;;;;;;;5108819;27;20393;-71
2021/11/03 10:34:33;;;;;;;15.40;8.95;;;;;;;;;;5108331;28;20047;-70
2021/11/03 10:37:59;;;;;;;11.93;7.20;;;;;;;;;;5110061;27;20454;-71
2021/11/03 10:40:26;;;;;;;10.80;5.93;;;;;;;;;;5110335;28;20419;-72
2021/11/03 10:42:54;;;;;;;10.93;6.47;;;;;;;;;;5109026;28;20031;-72
2021/11/03 10:46:23;;;;;;;11.73;7.05;;;;;;;;;;5109140;27;20396;-72
2021/11/03 10:52:07;;;;;;;12.50;7.00;;;;;;;;;;5067830;28;20143;-71
2021/11/03 10:54:39;;;;;;;12.30;6.75;;;;;;;;;;5069603;28;20033;-71
2021/11/03 10:57:25;;;;;;;15.80;6.72;;;;;;;;;;5066235;28;20480;-71
2021/11/03 10:59:55;;;;;;;13.80;8.02;;;;;;;;;;5068651;28;20451;-71
2021/11/03 11:02:27;;;;;;;17.23;6.97;;;;;;;;;;5064499;28;20041;-72
2021/11/03 11:04:55;;;;;;;12.60;7.28;;;;;;;;;;5063484;28;20031;-71
2021/11/03 11:08:21;;;;;;;13.90;7.47;;;;;;;;;;5109832;27;20436;-73
2021/11/03 11:11:08;;;;;;;16.85;9.05;;;;;;;;;;5108799;27;20455;-72
2021/11/03 11:13:41;;;;;;;18.17;9.05;;;;;;;;;;5090207;28;20111;-73
2021/11/03 11:18:45;;;;;;;12.80;7.65;;;;;;;;;;5116563;27;20396;-71
2021/11/03 11:22:56;;;;;;;19.88;10.85;;;;;;;;;;5110171;27;20454;-68
2021/11/03 11:25:55;;;;;;;17.00;9.02;;;;;;;;;;5110275;27;20783;-69
2021/11/03 11:28:37;;;;;;;14.57;8.23;;;;;;;;;;5110521;28;20044;-70
2021/11/03 11:31:11;;;;;;;17.52;9.43;;;;;;;;;;5109624;28;20024;-70
2021/11/03 11:35:09;;;;;;;15.13;8.60;;;;;;;;;;5108585;27;20446;-67
2021/11/03 11:41:14;;;;;;;13.35;8.00;;;;;;;;;;5108841;27;20385;-71
2021/11/03 11:45:52;;;;;;;15.40;8.30;;;;;;;;;;5108545;27;20385;-70
2021/11/03 11:49:32;;;;;;;15.48;8.23;;;;;;;;;;5068341;28;20399;-69
2021/11/03 11:52:00;;;;;;;18.30;9.90;;;;;;;;;;5069660;28;20524;-68
2021/11/03 11:55:15;;;;;;;18.75;10.20;;;;;;;;;;5110548;27;20393;-72
2021/11/03 11:58:04;;;;;;;11.93;7.80;;;;;;;;;;5087365;28;20093;-71
2021/11/03 12:02:35;;;;;;;15.02;8.85;;;;;;;;;;5110875;27;20392;-72
2021/11/03 12:05:14;;;;;;;14.88;9.73;;;;;;;;;;5108422;28;20024;-71
2021/11/03 12:08:51;;;;;;;16.92;10.77;;;;;;;;;;5110537;27;20462;-74
2021/11/03 12:11:19;;;;;;;15.27;10.02;;;;;;;;;;5110506;28;20028;-72
2021/11/03 12:17:39;;;;;;;18.73;10.65;;;;;;;;;;5110495;27;20389;-74
2021/11/03 12:20:27;;;;;;;16.98;11.30;;;;;;;;;;5110843;27;20450;-73
2021/11/03 12:22:53;;;;;;;15.50;10.75;;;;;;;;;;5110518;28;20115;-74
2021/11/03 12:28:09;;;;;;;16.75;9.32;;;;;;;;;;5110611;27;20397;-72
2021/11/03 12:30:39;;;;;;;17.85;9.50;;;;;;;;;;5110817;28;20484;-73
2021/11/03 12:33:07;;;;;;;16.05;9.82;;;;;;;;;;5110786;28;20054;-74
2021/11/03 12:35:34;;;;;;;17.13;9.57;;;;;;;;;;5110510;28;20099;-74
2021/11/03 12:38:28;;;;;;;13.43;8.07;;;;;;;;;;5110664;27;20384;-74
2021/11/03 12:40:54;;;;;;;13.20;7.50;;;;;;;;;;5110874;28;20024;-72
2021/11/03 12:43:26;;;;;;;12.80;7.45;;;;;;;;;;5110357;28;20055;-74
2021/11/03 12:45:59;;;;;;;13.70;8.73;;;;;;;;;;5110591;28;20058;-73
2021/11/03 12:48:27;;;;;;;15.18;8.95;;;;;;;;;;5109063;28;20394;-75
2021/11/03 12:54:14;;;;;;;16.67;8.55;;;;;;;;;;5110807;27;20454;-73
2021/11/03 12:56:41;;;;;;;14.90;7.68;;;;;;;;;;5110245;28;20020;-72
2021/11/03 13:00:04;;;;;;;11.13;6.88;;;;;;;;;;5067409;28;20450;-72
2021/11/03 13:02:32;;;;;;;17.08;9.02;;;;;;;;;;5066371;28;20058;-72
2021/11/03 13:05:03;;;;;;;13.32;7.45;;;;;;;;;;5065255;28;20094;-71
2021/11/03 13:07:39;;;;;;;10.50;6.43;;;;;;;;;;5062281;28;20040;-73
2021/11/03 13:10:16;;;;;;;12.50;6.90;;;;;;;;;;5061295;28;20042;-73
2021/11/03 13:14:52;;;;;;;11.73;6.10;;;;;;;;;;5106016;27;20455;-74
2021/11/03 13:21:55;;;;;;;15.38;7.85;;;;;;;;;;5090446;27;20386;-75
2021/11/03 13:24:24;;;;;;;23.55;13.93;;;;;;;;;;5089710;28;20116;-76
2021/11/03 13:26:52;;;;;;;21.73;13.60;;;;;;;;;;5090287;28;20035;-72
2021/11/03 13:29:22;;;;;;;22.45;14.43;;;;;;;;;;5089540;28;20077;-73
2021/11/03 13:32:28;;;;;;;24.10;12.10;;;;;;;;;;5109877;27;20380;-73
2021/11/03 13:35:04;;;;;;;25.65;16.30;;;;;;;;;;5110526;28;20445;-74
2021/11/03 13:37:34;;;;;;;20.48;11.95;;;;;;;;;;5110705;28;20042;-74
2021/11/03 13:40:18;;;;;;;20.92;12.13;;;;;;;;;;5110081;28;20020;-74
2021/11/03 13:42:50;;;;;;;21.38;12.40;;;;;;;;;;5110560;28;20027;-72
2021/11/03 13:45:19;;;;;;;25.02;12.57;;;;;;;;;;5109753;28;20016;-73
2021/11/03 13:48:04;;;;;;;24.88;15.85;;;;;;;;;;5109637;28;20031;-73
2021/11/03 13:50:56;;;;;;;25.08;15.52;;;;;;;;;;5109565;28;20024;-73
2021/11/03 13:53:33;;;;;;;18.30;11.55;;;;;;;;;;5106733;28;20555;-74
2021/11/03 13:56:02;;;;;;;15.15;9.05;;;;;;;;;;5109743;28;20028;-73
2021/11/03 14:02:08;;;;;;;17.20;12.32;;;;;;;;;;5110906;27;20775;-72
2021/11/03 14:04:40;;;;;;;35.17;20.42;;;;;;;;;;5110631;28;20035;-73
2021/11/03 14:07:38;;;;;;;17.73;9.88;;;;;;;;;;5109729;28;20077;-74
2021/11/03 14:10:05;;;;;;;17.15;11.63;;;;;;;;;;5098013;28;20074;-73
2021/11/03 14:13:00;;;;;;;14.90;9.23;;;;;;;;;;5109894;27;20734;-73
2021/11/03 14:15:26;;;;;;;12.98;7.93;;;;;;;;;;5110240;28;20024;-73
2021/11/03 14:17:52;;;;;;;14.50;9.00;;;;;;;;;;5110773;28;20024;-73
2021/11/03 14:21:06;;;;;;;467.55;250.18;;;;;;;;;;5131197;27;20112;-73
2021/11/03 14:23:32;;;;;;;175.95;150.23;;;;;;;;;;5110782;28;20016;-73
2021/11/03 14:30:21;;;;;;;30.83;16.80;;;;;;;;;;5111196;27;20400;-72
2021/11/03 14:32:48;;;;;;;35.28;17.38;;;;;;;;;;5110999;28;20032;-72
2021/11/03 14:35:34;;;;;;;36.55;21.52;;;;;;;;;;5102071;27;1507339;-74
2021/11/03 14:38:01;;;;;;;38.55;19.52;;;;;;;;;;5131532;28;20506;-72
2021/11/03 14:40:29;;;;;;;40.70;23.30;;;;;;;;;;5131281;28;20028;-74
2021/11/03 14:42:56;;;;;;;35.28;23.88;;;;;;;;;;5131140;28;20030;-73
2021/11/03 14:45:44;;;;;;;36.17;22.83;;;;;;;;;;5111253;27;20127;-72
2021/11/03 14:49:35;;;;;;;35.35;22.27;;;;;;;;;;5109348;27;20426;-75
2021/11/03 14:52:27;;;;;;;52.45;30.55;;;;;;;;;;5110730;28;20024;-74
2021/11/03 14:54:54;;;;;;;52.58;31.52;;;;;;;;;;5111109;28;20028;-74
2021/11/03 14:58:30;;;;;;;48.05;31.23;;;;;;;;;;5111111;27;20397;-74
2021/11/03 15:01:36;;;;;;;111.85;59.10;;;;;;;;;;5111131;27;20603;-71
2021/11/03 15:04:12;;;;;;;106.75;59.38;;;;;;;;;;5090461;28;20095;-73
2021/11/03 15:06:38;;;;;;;135.57;81.28;;;;;;;;;;5090713;28;20099;-73
2021/11/03 15:09:05;;;;;;;97.68;60.13;;;;;;;;;;5089224;28;20500;-73
2021/11/03 15:12:48;;;;;;;83.43;53.30;;;;;;;;;;5111435;27;20899;-74
2021/11/03 15:15:15;;;;;;;93.05;64.50;;;;;;;;;;5111358;28;20043;-74
2021/11/03 15:17:42;;;;;;;111.97;72.53;;;;;;;;;;5110616;28;20047;-74
2021/11/03 15:20:19;;;;;;;116.53;78.10;;;;;;;;;;5110914;28;20102;-74
2021/11/03 15:24:22;;;;;;;107.55;71.47;;;;;;;;;;5010659;28;20466;-75
2021/11/03 15:26:49;;;;;;;99.80;67.20;;;;;;;;;;5010827;28;20493;-74
2021/11/03 15:29:17;;;;;;;87.13;59.13;;;;;;;;;;5010921;28;20441;-74
2021/11/03 15:31:45;;;;;;;85.75;57.55;;;;;;;;;;5010575;28;20026;-73
2021/11/03 15:34:19;;;;;;;93.57;66.65;;;;;;;;;;5010862;28;20023;-74
2021/11/03 15:36:45;;;;;;;129.38;84.55;;;;;;;;;;4993198;28;20030;-73
2021/11/03 15:39:19;;;;;;;123.57;85.00;;;;;;;;;;4992770;28;20046;-73